Time;durP1;ratioP1;P1;durP2;ratioP2;P2;SDS_P1;SDS_P2;PMS_P1;PMS_P2;Temp;Humidity;BMP_temperature;BMP_pressure;BME280_temperature;BME280_humidity;BME280_pressure;Samples;Min_cycle;Max_cycle;Signal;HPM_P1;HPM_P2
2023/09/06 00:00:45;;;;;;;10.63;6.55;;;20.30;99.90;;;;;;5046439;28;20047;-71
2023/09/06 00:03:13;;;;;;;10.38;6.40;;;20.30;99.90;;;;;;5047338;28;20072;-70
2023/09/06 00:05:41;;;;;;;8.38;6.65;;;20.30;99.90;;;;;;5052632;28;20056;-70
2023/09/06 00:08:16;;;;;;;13.00;7.00;;;20.20;99.90;;;;;;5053068;28;20509;-70
2023/09/06 00:10:45;;;;;;;8.10;5.93;;;20.20;99.90;;;;;;5065048;28;20102;-70
2023/09/06 00:13:13;;;;;;;8.90;7.10;;;20.20;99.90;;;;;;5048912;28;20555;-71
2023/09/06 00:15:39;;;;;;;10.77;7.53;;;20.20;99.90;;;;;;5062799;28;20047;-71
2023/09/06 00:18:06;;;;;;;13.98;7.88;;;20.10;99.90;;;;;;5055751;28;20040;-70
2023/09/06 00:20:39;;;;;;;13.63;7.68;;;20.10;99.90;;;;;;5062394;28;20048;-70
2023/09/06 00:23:09;;;;;;;11.18;7.60;;;20.10;99.90;;;;;;5061115;28;20041;-71
2023/09/06 00:25:35;;;;;;;12.93;8.15;;;20.00;99.90;;;;;;5053200;28;20531;-71
2023/09/06 00:28:04;;;;;;;10.38;7.53;;;20.00;99.90;;;;;;5086771;28;20041;-71
2023/09/06 00:30:30;;;;;;;11.27;7.75;;;20.00;99.90;;;;;;5048546;28;20045;-71
2023/09/06 00:32:59;;;;;;;10.35;7.60;;;20.00;99.90;;;;;;5064915;28;20076;-71
2023/09/06 00:35:26;;;;;;;11.95;7.90;;;19.90;99.90;;;;;;5066183;28;20082;-71
2023/09/06 00:37:52;;;;;;;10.88;7.90;;;19.90;99.90;;;;;;5057877;28;20048;-71
2023/09/06 00:40:21;;;;;;;11.95;8.40;;;19.90;99.90;;;;;;5061118;28;20183;-71
2023/09/06 00:42:53;;;;;;;11.45;8.85;;;19.90;99.90;;;;;;5060883;28;20226;-71
2023/09/06 00:45:25;;;;;;;10.90;8.77;;;19.90;99.90;;;;;;5052974;28;20058;-71
2023/09/06 00:47:53;;;;;;;11.07;8.38;;;19.90;99.90;;;;;;5054575;28;20049;-71
2023/09/06 00:50:19;;;;;;;12.00;8.45;;;19.90;99.90;;;;;;5052946;28;20048;-71
2023/09/06 00:52:46;;;;;;;11.88;8.27;;;19.90;99.90;;;;;;5056591;28;20040;-71
2023/09/06 00:55:13;;;;;;;13.02;8.90;;;19.80;99.90;;;;;;5064024;28;20098;-71
2023/09/06 00:57:40;;;;;;;12.32;8.50;;;19.80;99.90;;;;;;5062854;28;20148;-71
2023/09/06 01:00:22;;;;;;;11.20;9.00;;;19.80;99.90;;;;;;5051854;28;20091;-71
2023/09/06 01:02:49;;;;;;;11.75;8.95;;;19.80;99.90;;;;;;5039585;28;20505;-70
2023/09/06 01:05:16;;;;;;;11.70;9.00;;;19.80;99.90;;;;;;5053970;28;20136;-71
2023/09/06 01:07:45;;;;;;;11.95;9.48;;;19.70;99.90;;;;;;5063185;28;20121;-71
2023/09/06 01:10:11;;;;;;;12.27;8.63;;;19.70;99.90;;;;;;5065976;28;20040;-71
2023/09/06 01:12:37;;;;;;;11.45;9.20;;;19.70;99.90;;;;;;5048403;28;20109;-71
2023/09/06 01:15:04;;;;;;;12.25;8.73;;;19.70;99.90;;;;;;5062287;28;20122;-71
2023/09/06 01:17:34;;;;;;;10.65;8.07;;;19.70;99.90;;;;;;5058453;28;20045;-72
2023/09/06 01:20:29;;;;;;;12.65;9.25;;;19.60;99.90;;;;;;5059435;28;20044;-72
2023/09/06 01:23:04;;;;;;;11.35;8.48;;;19.60;99.90;;;;;;5064214;28;20052;-71
2023/09/06 01:25:30;;;;;;;12.50;8.38;;;19.70;99.90;;;;;;5066813;28;20083;-71
2023/09/06 01:27:56;;;;;;;12.65;9.05;;;19.60;99.90;;;;;;5052496;28;20105;-71
2023/09/06 01:30:30;;;;;;;10.63;8.50;;;19.60;99.90;;;;;;5066325;28;20412;-71
2023/09/06 01:32:56;;;;;;;13.50;10.35;;;19.50;99.90;;;;;;5047528;28;20127;-71
2023/09/06 01:35:22;;;;;;;14.00;9.07;;;19.50;99.90;;;;;;5059296;28;20135;-71
2023/09/06 01:37:50;;;;;;;11.93;9.68;;;19.40;99.90;;;;;;5059736;28;20074;-70
2023/09/06 01:40:20;;;;;;;13.63;9.52;;;19.40;99.90;;;;;;5067264;28;20471;-71
2023/09/06 01:42:46;;;;;;;12.23;9.43;;;19.40;99.90;;;;;;5061600;28;22098;-71
2023/09/06 01:45:17;;;;;;;12.77;8.82;;;19.40;99.90;;;;;;5060058;28;20071;-71
2023/09/06 01:47:49;;;;;;;11.88;10.35;;;19.40;99.90;;;;;;5073197;28;20441;-71
2023/09/06 01:50:20;;;;;;;11.07;8.85;;;19.40;99.90;;;;;;5058287;28;20052;-71
2023/09/06 01:52:47;;;;;;;11.20;9.35;;;19.40;99.90;;;;;;5091371;28;20055;-71
2023/09/06 01:55:13;;;;;;;17.13;10.82;;;19.30;99.90;;;;;;5041595;28;20522;-71
2023/09/06 01:57:39;;;;;;;13.90;9.98;;;19.30;99.90;;;;;;5048569;28;20057;-72
2023/09/06 02:00:27;;;;;;;13.93;10.05;;;19.30;99.90;;;;;;5066415;28;20182;-73
2023/09/06 02:02:54;;;;;;;13.30;10.07;;;19.30;99.90;;;;;;5045189;28;20063;-72
2023/09/06 02:05:19;;;;;;;13.45;9.60;;;19.30;99.90;;;;;;5043926;28;20855;-72
2023/09/06 02:07:46;;;;;;;12.25;9.07;;;19.20;99.90;;;;;;5060554;28;20047;-71
2023/09/06 02:10:12;;;;;;;13.65;9.32;;;19.20;99.90;;;;;;5047328;28;20052;-72
2023/09/06 02:12:39;;;;;;;11.38;8.23;;;19.20;99.90;;;;;;5057537;28;20128;-72
2023/09/06 02:15:07;;;;;;;11.15;8.25;;;19.20;99.90;;;;;;5057305;28;20094;-72
2023/09/06 02:17:34;;;;;;;12.20;8.93;;;19.10;99.90;;;;;;5050518;28;20084;-72
2023/09/06 02:22:51;;;;;;;16.25;9.30;;;19.10;99.90;;;;;;5067973;28;20060;-72
2023/09/06 02:25:21;;;;;;;14.38;8.57;;;19.10;99.90;;;;;;5069218;28;20097;-72
2023/09/06 02:27:48;;;;;;;10.83;8.43;;;19.10;99.90;;;;;;5056258;28;20056;-72
2023/09/06 02:30:14;;;;;;;11.57;8.52;;;19.10;99.90;;;;;;5086241;28;20293;-72
2023/09/06 02:32:40;;;;;;;11.48;8.48;;;19.00;99.90;;;;;;5060295;28;20082;-72
2023/09/06 02:35:07;;;;;;;13.93;8.90;;;19.00;99.90;;;;;;5044006;28;20040;-73
2023/09/06 02:37:36;;;;;;;13.10;8.73;;;19.00;99.90;;;;;;5055117;28;20053;-72
2023/09/06 02:40:08;;;;;;;12.70;8.45;;;19.00;99.90;;;;;;5053306;28;20041;-73
2023/09/06 02:42:36;;;;;;;11.90;8.43;;;18.90;99.90;;;;;;5055717;28;20052;-72
2023/09/06 02:45:05;;;;;;;11.07;7.75;;;18.90;99.90;;;;;;5037870;28;20181;-72
2023/09/06 02:47:31;;;;;;;10.93;7.53;;;18.90;99.90;;;;;;5056023;28;20585;-72
2023/09/06 02:49:56;;;;;;;9.55;7.28;;;18.90;99.90;;;;;;5036754;28;20052;-72
2023/09/06 02:52:30;;;;;;;9.65;8.05;;;18.80;99.90;;;;;;5052581;28;20052;-72
2023/09/06 02:55:03;;;;;;;11.52;7.15;;;18.80;99.90;;;;;;5063644;28;20066;-72
2023/09/06 02:57:30;;;;;;;10.05;7.28;;;18.80;99.90;;;;;;5049340;28;20056;-72
2023/09/06 02:59:56;;;;;;;10.02;6.97;;;18.80;99.90;;;;;;5056868;28;20040;-72
2023/09/06 03:02:23;;;;;;;9.70;6.82;;;18.70;99.90;;;;;;5066386;28;20092;-71
2023/09/06 03:04:55;;;;;;;10.32;6.97;;;18.70;99.90;;;;;;5060864;28;20040;-71
2023/09/06 03:07:21;;;;;;;10.75;6.95;;;18.70;99.90;;;;;;5063384;28;20044;-71
2023/09/06 03:09:49;;;;;;;9.75;7.32;;;18.70;99.90;;;;;;5040904;28;20080;-71
2023/09/06 03:12:16;;;;;;;9.43;7.07;;;18.70;99.90;;;;;;5053471;28;20136;-71
2023/09/06 03:14:48;;;;;;;10.82;7.05;;;18.70;99.90;;;;;;5044061;28;20079;-71
2023/09/06 03:17:22;;;;;;;9.93;6.88;;;18.70;99.90;;;;;;5070553;28;20080;-72
2023/09/06 03:19:53;;;;;;;10.80;6.80;;;18.70;99.90;;;;;;5056217;28;20094;-71
2023/09/06 03:22:23;;;;;;;8.98;7.05;;;18.60;99.90;;;;;;5039316;28;20063;-71
2023/09/06 03:24:55;;;;;;;10.95;6.15;;;18.60;99.90;;;;;;5081319;28;20041;-71
2023/09/06 03:27:21;;;;;;;11.43;6.82;;;18.60;99.90;;;;;;5039544;28;20039;-71
2023/09/06 03:29:51;;;;;;;11.18;6.90;;;18.60;99.90;;;;;;5050806;28;20059;-71
2023/09/06 03:32:17;;;;;;;9.43;6.35;;;18.50;99.90;;;;;;5040980;28;20123;-71
2023/09/06 03:34:45;;;;;;;10.55;7.57;;;18.50;99.90;;;;;;5063642;28;20076;-71
2023/09/06 03:37:11;;;;;;;9.38;6.68;;;18.50;99.90;;;;;;5042074;28;20040;-71
2023/09/06 03:39:41;;;;;;;9.25;6.38;;;18.40;99.90;;;;;;5060728;28;20045;-71
2023/09/06 03:42:08;;;;;;;10.75;7.35;;;18.40;99.90;;;;;;5063401;28;20149;-71
2023/09/06 03:44:38;;;;;;;9.07;6.68;;;18.40;99.90;;;;;;5062873;28;20787;-71
2023/09/06 03:47:06;;;;;;;9.55;6.72;;;18.40;99.90;;;;;;5059308;28;20371;-71
2023/09/06 03:49:35;;;;;;;9.52;6.95;;;18.40;99.90;;;;;;5046467;28;20063;-71
2023/09/06 03:52:04;;;;;;;11.95;6.97;;;18.40;99.90;;;;;;5063047;28;20067;-71
2023/09/06 03:54:34;;;;;;;10.55;7.05;;;18.30;99.90;;;;;;5060509;28;20044;-72
2023/09/06 03:57:01;;;;;;;11.38;7.28;;;18.30;99.90;;;;;;5061457;28;20596;-71
2023/09/06 03:59:27;;;;;;;11.23;7.45;;;18.30;99.90;;;;;;5043769;28;20044;-71
2023/09/06 04:01:55;;;;;;;10.10;7.22;;;18.30;99.90;;;;;;5053678;28;20452;-71
2023/09/06 04:04:22;;;;;;;9.90;7.00;;;18.20;99.90;;;;;;5051520;28;20181;-71
2023/09/06 04:06:48;;;;;;;9.23;6.75;;;18.20;99.90;;;;;;5056667;28;20524;-71
2023/09/06 04:09:14;;;;;;;9.77;6.55;;;18.20;99.90;;;;;;5057710;28;20075;-72
2023/09/06 04:11:40;;;;;;;10.63;6.38;;;18.20;99.90;;;;;;5062583;28;20508;-71
2023/09/06 04:14:07;;;;;;;10.30;5.90;;;18.20;99.90;;;;;;5059221;28;20840;-71
2023/09/06 04:16:37;;;;;;;8.68;5.68;;;18.20;99.90;;;;;;5061183;28;20044;-72
2023/09/06 04:19:05;;;;;;;10.88;5.45;;;18.20;99.90;;;;;;5039991;28;20126;-72
2023/09/06 04:21:31;;;;;;;9.35;5.85;;;18.20;99.90;;;;;;5059158;28;20053;-71
2023/09/06 04:23:57;;;;;;;8.32;5.88;;;18.10;99.90;;;;;;5059329;28;20036;-71
2023/09/06 04:26:22;;;;;;;7.47;5.03;;;18.10;99.90;;;;;;5044669;28;20452;-71
2023/09/06 04:28:48;;;;;;;9.65;5.68;;;18.10;99.90;;;;;;5063471;28;20054;-71
2023/09/06 04:31:17;;;;;;;8.68;5.78;;;18.00;99.90;;;;;;5061423;28;20148;-71
2023/09/06 04:33:44;;;;;;;9.98;6.05;;;18.00;99.90;;;;;;5043913;28;20061;-71
2023/09/06 04:36:10;;;;;;;9.68;6.20;;;18.00;99.90;;;;;;5058968;28;22135;-71
2023/09/06 04:38:36;;;;;;;8.15;5.35;;;18.00;99.90;;;;;;5058763;28;20045;-71
2023/09/06 04:41:02;;;;;;;9.32;5.75;;;17.90;99.90;;;;;;5061949;28;20093;-71
2023/09/06 04:43:28;;;;;;;7.93;5.68;;;17.90;99.90;;;;;;5063089;28;20048;-71
2023/09/06 04:45:54;;;;;;;9.95;6.00;;;17.90;99.90;;;;;;5061503;28;20117;-72
2023/09/06 04:48:23;;;;;;;7.75;5.95;;;17.90;99.90;;;;;;5061364;28;20523;-72
2023/09/06 04:50:50;;;;;;;8.45;5.53;;;17.90;99.90;;;;;;5059658;28;20047;-71
2023/09/06 04:53:18;;;;;;;8.25;5.50;;;17.80;99.90;;;;;;5059616;28;20033;-71
2023/09/06 04:55:45;;;;;;;10.15;6.45;;;17.80;99.90;;;;;;5064511;28;20110;-71
2023/09/06 04:58:11;;;;;;;8.57;5.55;;;17.80;99.90;;;;;;5040521;28;20073;-71
2023/09/06 05:00:43;;;;;;;8.95;6.13;;;17.80;99.90;;;;;;5036696;28;20059;-71
2023/09/06 05:03:17;;;;;;;9.80;6.00;;;17.80;99.90;;;;;;5054014;28;20066;-72
2023/09/06 05:05:47;;;;;;;9.13;5.68;;;17.70;99.90;;;;;;5058615;28;20416;-71
2023/09/06 05:08:14;;;;;;;10.20;6.03;;;17.70;99.90;;;;;;5043145;28;20056;-72
2023/09/06 05:10:40;;;;;;;8.48;5.72;;;17.70;99.90;;;;;;5050417;28;20147;-71
2023/09/06 05:13:07;;;;;;;10.23;6.40;;;17.70;99.90;;;;;;5056243;28;20119;-72
2023/09/06 05:15:37;;;;;;;10.82;6.72;;;17.70;99.90;;;;;;5086542;28;20131;-71
2023/09/06 05:18:04;;;;;;;8.63;5.90;;;17.70;99.90;;;;;;5058556;28;20202;-71
2023/09/06 05:20:35;;;;;;;9.88;5.50;;;17.70;99.90;;;;;;5049055;28;20037;-72
2023/09/06 05:23:05;;;;;;;11.68;6.03;;;17.60;99.90;;;;;;5052659;28;20461;-72
2023/09/06 05:25:31;;;;;;;10.02;5.90;;;17.70;99.90;;;;;;5052703;28;20477;-71
2023/09/06 05:27:59;;;;;;;8.55;5.80;;;17.60;99.90;;;;;;5050727;28;20044;-72
2023/09/06 05:30:26;;;;;;;9.07;5.97;;;17.60;99.90;;;;;;5045644;28;20059;-71
2023/09/06 05:32:53;;;;;;;10.27;6.53;;;17.60;99.90;;;;;;5053835;28;20048;-71
2023/09/06 05:35:19;;;;;;;12.48;6.13;;;17.60;99.90;;;;;;5078688;28;20045;-72
2023/09/06 05:37:45;;;;;;;7.47;5.15;;;17.60;99.90;;;;;;5036194;28;20415;-71
2023/09/06 05:40:12;;;;;;;8.45;5.72;;;17.60;99.90;;;;;;5047588;28;20043;-71
2023/09/06 05:42:39;;;;;;;10.02;5.72;;;17.50;99.90;;;;;;5043115;28;20123;-71
2023/09/06 05:45:08;;;;;;;8.60;5.50;;;17.60;99.90;;;;;;5035205;28;20056;-71
2023/09/06 05:47:35;;;;;;;10.68;5.82;;;17.60;99.90;;;;;;5057579;28;20458;-71
2023/09/06 05:50:02;;;;;;;8.20;5.93;;;17.60;99.90;;;;;;5034181;28;20413;-72
2023/09/06 05:52:28;;;;;;;10.18;5.97;;;17.70;99.90;;;;;;5040917;28;20056;-71
2023/09/06 05:54:54;;;;;;;9.70;6.10;;;17.70;99.90;;;;;;5036339;28;20051;-72
2023/09/06 05:57:20;;;;;;;11.10;5.55;;;17.70;99.90;;;;;;5043181;28;20041;-71
2023/09/06 05:59:46;;;;;;;7.72;5.32;;;17.90;99.90;;;;;;5052951;28;20210;-71
2023/09/06 06:02:12;;;;;;;9.50;5.28;;;18.00;99.90;;;;;;5043893;28;20076;-71
2023/09/06 06:04:39;;;;;;;7.68;5.28;;;18.00;99.90;;;;;;5048025;28;20076;-71
2023/09/06 06:07:06;;;;;;;8.27;5.20;;;18.10;99.90;;;;;;5054055;28;20139;-71
2023/09/06 06:09:33;;;;;;;7.53;5.05;;;18.00;99.90;;;;;;5051653;28;20041;-71
2023/09/06 06:11:59;;;;;;;8.15;5.25;;;18.00;99.90;;;;;;5045553;28;22121;-71
2023/09/06 06:14:28;;;;;;;8.52;4.55;;;18.00;99.90;;;;;;5049581;28;20048;-71
2023/09/06 06:16:53;;;;;;;9.13;5.15;;;18.00;99.90;;;;;;5048149;28;20048;-71
2023/09/06 06:19:19;;;;;;;10.13;5.07;;;18.00;99.90;;;;;;5046167;28;20413;-71
2023/09/06 06:21:45;;;;;;;10.88;5.53;;;18.00;99.90;;;;;;5047445;28;20052;-71
2023/09/06 06:24:13;;;;;;;8.38;5.00;;;18.10;99.90;;;;;;5049579;28;20037;-71
2023/09/06 06:26:38;;;;;;;7.32;4.65;;;18.10;99.90;;;;;;5050195;28;21748;-71
2023/09/06 06:29:04;;;;;;;8.48;4.65;;;18.10;99.90;;;;;;5057486;28;20036;-71
2023/09/06 06:31:30;;;;;;;8.02;4.82;;;18.10;99.90;;;;;;5058250;28;20459;-71
2023/09/06 06:33:56;;;;;;;10.07;4.93;;;18.20;99.90;;;;;;5060613;28;20040;-71
2023/09/06 06:36:22;;;;;;;8.82;5.20;;;18.20;99.90;;;;;;5056097;28;20120;-71
2023/09/06 06:38:48;;;;;;;8.77;5.10;;;18.20;99.90;;;;;;5056202;28;20044;-72
2023/09/06 06:41:22;;;;;;;8.50;5.43;;;18.20;99.90;;;;;;5054869;28;20056;-72
2023/09/06 06:43:48;;;;;;;7.05;4.45;;;18.20;99.90;;;;;;5054492;28;20060;-71
2023/09/06 06:46:33;;;;;;;7.45;4.57;;;18.30;99.90;;;;;;5054781;28;20052;-71
2023/09/06 06:48:59;;;;;;;7.50;4.43;;;18.40;99.90;;;;;;5051615;28;20052;-71
2023/09/06 06:51:38;;;;;;;6.80;3.65;;;18.50;99.90;;;;;;5046966;28;20045;-71
2023/09/06 06:54:14;;;;;;;6.55;3.90;;;18.50;99.90;;;;;;5053506;28;20151;-71
2023/09/06 06:56:40;;;;;;;7.03;3.88;;;18.60;99.90;;;;;;5045712;28;20519;-71
2023/09/06 06:59:09;;;;;;;7.38;3.72;;;18.70;99.90;;;;;;5051492;28;20064;-71
2023/09/06 07:01:36;;;;;;;6.30;3.97;;;18.80;99.90;;;;;;5056303;28;20048;-71
2023/09/06 07:04:04;;;;;;;7.25;3.70;;;18.80;99.90;;;;;;5061224;28;20571;-72
2023/09/06 07:06:30;;;;;;;7.70;3.20;;;18.90;99.90;;;;;;5086240;28;20545;-71
2023/09/06 07:08:57;;;;;;;6.10;3.20;;;19.00;99.90;;;;;;5065641;28;20131;-71
2023/09/06 07:11:24;;;;;;;7.00;3.22;;;19.00;99.90;;;;;;5054675;28;20052;-71
2023/09/06 07:13:51;;;;;;;7.57;3.05;;;19.10;99.90;;;;;;5054008;28;20057;-71
2023/09/06 07:16:19;;;;;;;6.82;2.80;;;19.20;99.90;;;;;;5053923;28;20045;-71
2023/09/06 07:18:45;;;;;;;7.28;2.85;;;19.30;99.90;;;;;;5060143;28;20056;-73
2023/09/06 07:21:12;;;;;;;7.20;3.00;;;19.30;99.90;;;;;;5030635;28;20413;-72
2023/09/06 07:23:38;;;;;;;6.38;2.80;;;19.40;99.90;;;;;;5055192;28;20048;-72
2023/09/06 07:26:04;;;;;;;7.35;2.58;;;19.60;99.90;;;;;;5056103;28;20166;-72
2023/09/06 07:28:43;;;;;;;5.22;2.63;;;19.80;99.90;;;;;;5052278;28;20040;-72
2023/09/06 07:31:10;;;;;;;6.28;2.42;;;20.00;99.90;;;;;;5057974;28;20044;-72
2023/09/06 07:33:36;;;;;;;5.03;2.40;;;20.20;99.90;;;;;;5056454;28;20072;-72
2023/09/06 07:36:03;;;;;;;6.57;2.60;;;20.30;99.90;;;;;;5054232;28;20051;-72
2023/09/06 07:38:32;;;;;;;5.70;2.10;;;20.50;99.90;;;;;;5057664;28;20044;-72
2023/09/06 07:40:59;;;;;;;5.05;2.30;;;20.70;99.90;;;;;;5050226;28;20040;-72
2023/09/06 07:43:28;;;;;;;6.40;2.20;;;20.90;99.90;;;;;;5049473;28;20052;-71
2023/09/06 07:45:58;;;;;;;6.22;2.25;;;21.00;99.90;;;;;;5051407;28;20052;-71
2023/09/06 07:48:28;;;;;;;3.85;2.20;;;21.20;99.90;;;;;;5049808;28;20044;-71
2023/09/06 07:50:55;;;;;;;5.88;2.05;;;21.40;99.90;;;;;;5054782;28;20036;-71
2023/09/06 07:53:21;;;;;;;6.20;2.08;;;21.40;99.90;;;;;;5054925;28;20072;-71
2023/09/06 07:55:47;;;;;;;7.32;2.60;;;21.50;99.90;;;;;;5055742;28;20596;-70
2023/09/06 07:58:14;;;;;;;9.10;2.40;;;21.70;99.90;;;;;;5058401;28;20048;-71
2023/09/06 08:00:41;;;;;;;7.57;2.17;;;21.80;99.90;;;;;;5055209;28;20468;-71
2023/09/06 08:03:07;;;;;;;6.68;2.00;;;21.80;99.90;;;;;;5054990;28;20048;-71
2023/09/06 08:05:35;;;;;;;7.15;2.20;;;22.00;99.90;;;;;;5050306;28;20045;-71
2023/09/06 08:08:01;;;;;;;4.80;1.80;;;22.10;99.90;;;;;;5052920;28;20133;-72
2023/09/06 08:10:27;;;;;;;4.07;1.80;;;22.20;99.90;;;;;;5050361;28;20115;-71
2023/09/06 08:12:53;;;;;;;5.40;2.00;;;22.30;99.90;;;;;;5052578;28;20047;-72
2023/09/06 08:15:18;;;;;;;6.05;2.17;;;22.40;99.90;;;;;;5053278;28;20593;-71
2023/09/06 08:17:47;;;;;;;4.68;2.00;;;22.50;99.90;;;;;;5053699;28;20389;-72
2023/09/06 08:20:15;;;;;;;5.57;2.00;;;22.60;99.90;;;;;;5052353;28;20049;-72
2023/09/06 08:22:47;;;;;;;9.05;2.20;;;22.70;99.90;;;;;;5048147;28;20051;-71
2023/09/06 08:25:14;;;;;;;7.53;2.13;;;22.80;99.90;;;;;;5053518;28;20084;-70
2023/09/06 08:27:41;;;;;;;6.47;2.28;;;22.80;99.90;;;;;;5057481;28;20405;-70
2023/09/06 08:30:15;;;;;;;6.95;2.20;;;23.00;99.90;;;;;;5051125;28;20101;-70
2023/09/06 08:32:42;;;;;;;4.97;1.90;;;23.00;99.90;;;;;;5053311;28;20047;-70
2023/09/06 08:35:11;;;;;;;5.95;1.98;;;23.10;99.90;;;;;;5048799;28;20090;-71
2023/09/06 08:37:37;;;;;;;6.38;2.13;;;23.20;99.90;;;;;;5047528;28;20560;-71
2023/09/06 08:40:07;;;;;;;4.07;2.03;;;23.20;99.90;;;;;;5049348;28;20163;-71
2023/09/06 08:42:34;;;;;;;6.97;2.00;;;23.30;99.90;;;;;;5042752;28;20469;-71
2023/09/06 08:45:01;;;;;;;6.03;2.55;;;23.40;99.90;;;;;;5050191;28;20070;-72
2023/09/06 08:47:28;;;;;;;7.85;2.25;;;23.50;99.90;;;;;;5053340;28;20550;-72
2023/09/06 08:49:54;;;;;;;4.68;1.95;;;23.60;99.90;;;;;;5052161;28;20055;-72
2023/09/06 08:52:21;;;;;;;3.90;1.90;;;23.70;99.90;;;;;;5031951;28;21403;-72
2023/09/06 08:54:48;;;;;;;6.95;1.95;;;23.80;99.90;;;;;;5043364;28;20053;-72
2023/09/06 08:57:15;;;;;;;5.18;1.90;;;23.90;99.90;;;;;;5047766;28;20059;-72
2023/09/06 08:59:41;;;;;;;5.03;2.15;;;24.00;99.90;;;;;;5050977;28;20044;-71
2023/09/06 09:02:12;;;;;;;4.22;1.80;;;24.10;99.90;;;;;;5049796;28;20099;-72
2023/09/06 09:04:42;;;;;;;4.22;1.83;;;24.20;99.90;;;;;;5047081;28;20109;-72
2023/09/06 09:07:18;;;;;;;4.90;1.90;;;24.20;99.90;;;;;;5052663;28;20089;-71
2023/09/06 09:10:07;;;;;;;4.57;1.95;;;24.40;99.90;;;;;;5046618;28;20054;-71
2023/09/06 09:12:35;;;;;;;10.30;2.10;;;24.40;99.90;;;;;;5046329;28;20045;-72
2023/09/06 09:15:02;;;;;;;9.23;2.08;;;24.50;99.90;;;;;;5052220;28;20044;-71
2023/09/06 09:17:29;;;;;;;6.97;1.88;;;24.60;99.90;;;;;;5044545;28;20076;-72
2023/09/06 09:20:00;;;;;;;7.40;2.58;;;24.70;99.90;;;;;;5048158;28;20461;-72
2023/09/06 09:22:28;;;;;;;6.95;1.80;;;24.80;99.90;;;;;;5050417;28;20167;-71
2023/09/06 09:24:59;;;;;;;5.18;2.10;;;24.80;99.90;;;;;;5049039;28;21354;-71
2023/09/06 09:27:28;;;;;;;;;;;24.90;99.90;;;;;;5078545;28;20052;-72
2023/09/06 09:29:59;;;;;;;5.38;2.08;;;25.00;99.90;;;;;;5050655;28;20359;-72
2023/09/06 09:32:25;;;;;;;5.68;1.85;;;25.00;99.90;;;;;;5057833;28;20075;-72
2023/09/06 09:34:52;;;;;;;4.57;2.03;;;25.10;99.90;;;;;;5056362;28;20176;-72
2023/09/06 09:37:22;;;;;;;7.35;1.90;;;25.10;99.90;;;;;;5051085;28;20501;-72
2023/09/06 09:39:47;;;;;;;4.65;1.75;;;25.20;99.90;;;;;;5052627;28;20052;-71
2023/09/06 09:42:14;;;;;;;7.38;2.05;;;25.30;99.90;;;;;;5062357;28;20441;-71
2023/09/06 09:44:40;;;;;;;3.05;1.60;;;25.30;99.90;;;;;;5063870;28;20082;-72
2023/09/06 09:47:14;;;;;;;4.47;2.00;;;25.40;99.90;;;;;;5063730;28;20048;-71
2023/09/06 09:49:41;;;;;;;7.00;1.98;;;25.40;99.90;;;;;;5059707;28;20048;-70
2023/09/06 09:52:11;;;;;;;6.93;1.80;;;25.50;99.90;;;;;;5060587;28;20080;-71
2023/09/06 09:54:47;;;;;;;5.80;2.00;;;25.60;99.90;;;;;;5054025;28;20075;-71
2023/09/06 09:57:26;;;;;;;4.95;1.95;;;25.60;99.90;;;;;;5057165;28;20453;-70
2023/09/06 09:59:54;;;;;;;4.95;2.00;;;25.70;99.90;;;;;;5057059;28;20076;-72
2023/09/06 10:02:22;;;;;;;6.75;2.00;;;25.70;99.90;;;;;;5057334;28;20051;-71
2023/09/06 10:04:50;;;;;;;5.93;2.00;;;25.80;99.90;;;;;;5052821;28;20274;-70
2023/09/06 10:07:19;;;;;;;7.60;2.00;;;25.90;99.90;;;;;;5056554;28;20558;-71
2023/09/06 10:09:47;;;;;;;3.92;1.80;;;25.90;99.90;;;;;;5062459;28;20033;-71
2023/09/06 10:12:14;;;;;;;5.53;2.05;;;26.00;99.90;;;;;;5054485;28;20043;-70
2023/09/06 10:14:42;;;;;;;3.88;1.63;;;26.00;99.90;;;;;;5051144;28;20512;-70
2023/09/06 10:17:10;;;;;;;2.65;1.40;;;26.10;99.90;;;;;;5048471;28;20139;-70
2023/09/06 10:19:37;;;;;;;5.57;1.90;;;26.20;99.90;;;;;;5057577;28;20041;-70
2023/09/06 10:22:07;;;;;;;5.63;1.75;;;26.20;99.90;;;;;;5057284;28;20123;-71
2023/09/06 10:24:38;;;;;;;4.38;1.80;;;26.30;99.90;;;;;;5056778;28;20135;-70
2023/09/06 10:27:11;;;;;;;5.30;1.83;;;26.40;99.90;;;;;;5064026;28;20045;-70
2023/09/06 10:29:55;;;;;;;5.40;1.90;;;26.40;99.90;;;;;;5055873;28;20268;-70
2023/09/06 10:32:22;;;;;;;7.05;1.88;;;26.50;99.90;;;;;;5057233;28;20472;-70
2023/09/06 10:35:29;;;;;;;7.55;1.88;;;26.50;99.90;;;;;;5055980;28;20048;-71
2023/09/06 10:38:14;;;;;;;3.65;1.75;;;26.60;99.90;;;;;;5055606;28;20137;-71
2023/09/06 10:40:51;;;;;;;6.78;1.70;;;26.70;99.90;;;;;;5051430;28;20036;-71
2023/09/06 10:43:28;;;;;;;4.13;1.67;;;26.70;99.90;;;;;;5051027;28;20677;-71
2023/09/06 10:46:18;;;;;;;6.63;1.50;;;26.70;99.90;;;;;;5048954;28;20222;-71
2023/09/06 10:49:17;;;;;;;3.45;1.63;;;26.80;99.90;;;;;;5049987;28;20052;-71
2023/09/06 10:52:09;;;;;;;4.38;1.75;;;26.80;99.90;;;;;;5049513;28;20075;-71
2023/09/06 10:54:44;;;;;;;4.22;1.80;;;26.80;99.90;;;;;;5059302;28;20498;-71
2023/09/06 10:57:15;;;;;;;3.38;1.67;;;26.90;99.90;;;;;;5055650;28;20040;-72
2023/09/06 10:59:54;;;;;;;5.13;1.92;;;26.90;99.90;;;;;;5054113;28;20505;-71
2023/09/06 11:02:25;;;;;;;4.60;1.77;;;26.90;99.90;;;;;;5085960;28;20080;-70
2023/09/06 11:05:05;;;;;;;4.63;1.70;;;27.00;99.90;;;;;;5049946;28;20071;-70
2023/09/06 11:07:39;;;;;;;;;;;27.10;99.90;;;;;;5057270;28;20041;-72
2023/09/06 11:10:06;;;;;;;3.15;1.50;;;27.10;99.90;;;;;;5056503;28;20355;-73
2023/09/06 11:12:32;;;;;;;4.10;1.70;;;27.10;99.90;;;;;;5059987;28;20098;-72
2023/09/06 11:14:58;;;;;;;5.75;1.90;;;27.20;99.90;;;;;;5060154;28;20047;-71
2023/09/06 11:17:24;;;;;;;3.20;1.70;;;27.30;99.90;;;;;;5056096;28;20033;-70
2023/09/06 11:19:50;;;;;;;4.57;1.70;;;27.30;99.90;;;;;;5052674;28;20044;-70
2023/09/06 11:22:19;;;;;;;4.55;1.88;;;27.40;99.90;;;;;;5048531;28;20045;-70
2023/09/06 11:24:44;;;;;;;3.72;1.50;;;27.50;99.90;;;;;;5055246;28;20102;-71
2023/09/06 11:27:21;;;;;;;6.30;1.95;;;27.50;99.90;;;;;;5056199;28;20044;-70
2023/09/06 11:29:59;;;;;;;3.78;1.73;;;27.60;99.90;;;;;;5054990;28;20049;-70
2023/09/06 11:32:28;;;;;;;4.18;1.58;;;27.60;99.90;;;;;;5055068;28;20049;-70
2023/09/06 11:34:54;;;;;;;4.68;1.50;;;27.70;99.90;;;;;;5051696;28;20049;-70
2023/09/06 11:37:20;;;;;;;6.60;2.17;;;27.70;99.90;;;;;;5052927;28;20044;-70
2023/09/06 11:39:47;;;;;;;6.07;2.00;;;27.70;99.90;;;;;;5055006;28;20076;-70
2023/09/06 11:42:15;;;;;;;3.72;1.67;;;27.80;99.90;;;;;;5084363;28;20114;-71
2023/09/06 11:44:49;;;;;;;4.82;1.60;;;27.90;99.90;;;;;;5054107;28;20036;-71
2023/09/06 11:47:18;;;;;;;6.32;1.95;;;27.90;99.90;;;;;;5058574;28;20051;-70
2023/09/06 11:49:49;;;;;;;3.92;1.65;;;27.90;99.90;;;;;;5055088;28;20084;-70
2023/09/06 11:52:18;;;;;;;4.20;2.00;;;28.00;99.90;;;;;;5032869;28;20086;-71
2023/09/06 11:54:50;;;;;;;5.28;1.98;;;28.00;99.90;;;;;;5052330;28;20452;-70
2023/09/06 11:57:23;;;;;;;5.13;1.60;;;28.10;99.90;;;;;;5046541;28;20403;-70
2023/09/06 11:59:58;;;;;;;3.75;1.77;;;28.10;99.90;;;;;;5051898;28;20231;-70
2023/09/06 12:02:34;;;;;;;4.40;1.67;;;28.20;99.90;;;;;;5052846;28;20801;-70
2023/09/06 12:05:03;;;;;;;5.45;1.60;;;28.30;99.90;;;;;;5043639;28;20059;-71
2023/09/06 12:07:34;;;;;;;4.63;1.67;;;28.30;99.90;;;;;;5041166;28;20796;-71
2023/09/06 12:10:04;;;;;;;;;;;28.40;99.90;;;;;;5049214;28;20052;-70
2023/09/06 12:12:43;;;;;;;5.35;1.77;;;28.40;99.90;;;;;;5047136;28;20580;-71
2023/09/06 12:15:19;;;;;;;2.83;1.40;;;28.60;99.90;;;;;;5055830;28;20044;-70
2023/09/06 12:17:49;;;;;;;2.97;1.50;;;28.60;99.90;;;;;;5054284;28;20048;-71
2023/09/06 12:20:27;;;;;;;3.38;1.63;;;28.60;99.90;;;;;;5051089;28;20404;-71
2023/09/06 12:22:55;;;;;;;4.22;1.52;;;28.70;99.90;;;;;;5046067;28;20053;-69
2023/09/06 12:25:20;;;;;;;4.20;1.35;;;28.70;99.90;;;;;;5058808;28;20127;-70
2023/09/06 12:27:47;;;;;;;3.58;1.40;;;28.70;99.90;;;;;;5058981;28;20151;-70
2023/09/06 12:30:16;;;;;;;3.85;1.48;;;28.80;99.90;;;;;;5057367;28;20459;-69
2023/09/06 12:32:45;;;;;;;5.22;1.55;;;28.80;99.90;;;;;;5057555;28;20110;-70
2023/09/06 12:35:11;;;;;;;2.88;1.50;;;28.80;99.90;;;;;;5057392;28;20065;-69
2023/09/06 12:37:38;;;;;;;2.63;1.20;;;28.80;99.90;;;;;;5060211;28;20048;-70
2023/09/06 12:40:13;;;;;;;3.15;1.50;;;28.90;99.90;;;;;;5058357;28;20048;-72
2023/09/06 12:42:46;;;;;;;4.13;1.40;;;28.90;98.70;;;;;;5055321;28;20049;-70
2023/09/06 12:45:30;;;;;;;6.22;1.55;;;28.90;98.20;;;;;;5058729;28;20055;-71
2023/09/06 12:47:58;;;;;;;2.58;1.23;;;28.90;99.00;;;;;;5057817;28;20049;-71
2023/09/06 12:50:24;;;;;;;2.80;1.20;;;29.00;98.40;;;;;;5052692;28;20044;-71
2023/09/06 12:52:51;;;;;;;4.50;1.52;;;29.00;98.40;;;;;;5058381;28;20138;-70
2023/09/06 12:55:17;;;;;;;3.22;1.23;;;29.10;99.10;;;;;;5086718;28;20090;-71